aviador You're here:

YSDU Decoded Metar

DUBBO in AUSTRALIA
Report Time2017-06-22 21:30:00
UTC Time2017-06-22 22:14:35
Flight Rules vfr VFR
Wind160° at 08 kt
W.Decomp.*RWY 11: 6.1 kt HW 5.1 kt RCW
RWY 23: 1.4 kt HW 7.9 kt LCW
W.Rank160° ranks 8
Current wind is above 160° avg. (7.6)
Visibility9999 m
Phenomena:N/A
Clouds:N/A
Expected CloudBase > 400 ft AGL from Temp-Dew spread
CeilingNone
Temp04°C (ISA -9)
Dew Point03°C (93% RH)
AAT-0.4°C
QNH1022 hPa
Density Alt-410 ft
Elevation902 ft
Report Wrong Elevation
Raw Report
YSDU 222130Z AUTO 16008KT 9999 // NCD 04/03 Q1022 RF00.0/000.0=

Extra information for YSDU:More info

Metar Taf Metar & Taf Last 4 Metars F.Rules Stats Wind Profile Meteogram Temp Stats Airport Information Weather charts Add Link Nearby VenuesMetar ALERT Operation Metar Decoded Social comments